Time;durP1;ratioP1;P1;durP2;ratioP2;P2;SDS_P1;SDS_P2;PMS_P1;PMS_P2;Temp;Humidity;BMP_temperature;BMP_pressure;BME280_temperature;BME280_humidity;BME280_pressure;Samples;Min_cycle;Max_cycle;Signal;HPM_P1;HPM_P2
2023/06/18 00:02:38;;;;;;;7.13;6.47;;;17.60;96.40;;;;;;6351264;28;20229;-62
2023/06/18 00:05:41;;;;;;;6.60;6.00;;;17.60;96.60;;;;;;6351608;28;20475;-62
2023/06/18 00:08:45;;;;;;;6.73;6.07;;;17.50;96.60;;;;;;6365594;27;20946;-62
2023/06/18 00:11:50;;;;;;;6.13;5.43;;;17.50;96.70;;;;;;6376695;27;20480;-62
2023/06/18 00:14:53;;;;;;;7.93;6.80;;;17.50;96.90;;;;;;6370309;27;20787;-62
2023/06/18 00:17:56;;;;;;;8.60;5.50;;;17.40;97.10;;;;;;6357389;27;20474;-64
2023/06/18 00:21:03;;;;;;;6.80;6.03;;;17.40;97.20;;;;;;6376520;27;20965;-65
2023/06/18 00:24:06;;;;;;;5.90;5.40;;;17.40;97.60;;;;;;6376046;27;21012;-65
2023/06/18 00:27:10;;;;;;;6.90;6.30;;;17.40;98.00;;;;;;6376917;27;20481;-63
2023/06/18 00:30:16;;;;;;;6.07;5.57;;;17.40;98.00;;;;;;6374551;27;20934;-62
2023/06/18 00:33:19;;;;;;;5.90;5.40;;;17.40;98.10;;;;;;6375238;27;20213;-62
2023/06/18 00:36:26;;;;;;;7.00;6.30;;;17.50;98.00;;;;;;6375737;27;20964;-62
2023/06/18 00:39:30;;;;;;;7.17;6.50;;;17.40;98.00;;;;;;6374525;27;20868;-62
2023/06/18 00:42:34;;;;;;;7.50;6.00;;;17.50;98.10;;;;;;6376036;27;20561;-62
2023/06/18 00:45:37;;;;;;;7.07;6.47;;;17.60;97.80;;;;;;6366670;27;20484;-62
2023/06/18 00:48:41;;;;;;;7.80;6.07;;;17.60;97.80;;;;;;6364061;27;20837;-62
2023/06/18 00:51:44;;;;;;;6.33;5.73;;;17.70;98.10;;;;;;6361698;27;20475;-62
2023/06/18 00:54:49;;;;;;;6.77;6.10;;;17.80;97.80;;;;;;6360116;27;20542;-62
2023/06/18 00:57:59;;;;;;;5.90;5.40;;;18.00;98.10;;;;;;6360739;27;20213;-62
2023/06/18 01:01:10;;;;;;;7.60;6.90;;;18.30;97.30;;;;;;6364874;27;20321;-62
2023/06/18 01:04:13;;;;;;;6.90;6.30;;;18.30;96.60;;;;;;6361559;27;20232;-62
2023/06/18 01:07:17;;;;;;;7.70;6.60;;;18.30;96.40;;;;;;6361539;27;20201;-62
2023/06/18 01:10:30;;;;;;;6.33;5.83;;;18.20;96.50;;;;;;6359930;27;20301;-62
2023/06/18 01:13:36;;;;;;;6.00;5.50;;;18.10;96.60;;;;;;6354788;27;20458;-62
2023/06/18 01:16:45;;;;;;;6.87;6.27;;;17.90;96.70;;;;;;6355825;27;20573;-62
2023/06/18 01:19:51;;;;;;;6.60;6.00;;;17.90;97.00;;;;;;6356751;27;20612;-62
2023/06/18 01:23:01;;;;;;;6.10;5.57;;;18.00;96.80;;;;;;6359396;27;20475;-61
2023/06/18 01:26:05;;;;;;;7.43;6.77;;;18.00;96.60;;;;;;6349622;27;20542;-61
2023/06/18 01:29:12;;;;;;;5.70;5.20;;;17.80;96.70;;;;;;6355465;27;20221;-61
2023/06/18 01:32:16;;;;;;;6.60;5.90;;;17.70;96.90;;;;;;6352642;27;20221;-61
2023/06/18 01:35:21;;;;;;;8.13;6.20;;;17.60;97.10;;;;;;6353187;27;20477;-61
2023/06/18 01:38:36;;;;;;;7.27;6.53;;;17.50;97.30;;;;;;6355883;27;20462;-61
2023/06/18 01:41:43;;;;;;;6.73;6.13;;;17.40;97.50;;;;;;6357683;27;20560;-62
2023/06/18 01:44:55;;;;;;;6.80;6.20;;;17.30;97.50;;;;;;6353074;27;20481;-62
2023/06/18 01:48:03;;;;;;;7.03;6.40;;;17.20;97.80;;;;;;6371834;27;20550;-62
2023/06/18 01:51:07;;;;;;;7.23;6.63;;;17.10;98.00;;;;;;6375284;27;20539;-62
2023/06/18 01:54:11;;;;;;;7.20;6.50;;;17.10;98.20;;;;;;6370925;27;20951;-62
2023/06/18 01:57:14;;;;;;;7.63;6.30;;;17.00;98.10;;;;;;6374756;27;20791;-62
2023/06/18 02:00:19;;;;;;;6.30;5.70;;;17.00;98.40;;;;;;6374760;27;20793;-62
2023/06/18 02:03:23;;;;;;;7.73;5.90;;;16.90;98.50;;;;;;6375277;27;20922;-62
2023/06/18 02:06:26;;;;;;;7.20;6.60;;;16.80;98.50;;;;;;6374942;27;20462;-62
2023/06/18 02:09:30;;;;;;;7.17;6.57;;;16.80;98.70;;;;;;6374580;28;20575;-62
2023/06/18 02:12:33;;;;;;;7.10;6.40;;;16.80;98.90;;;;;;6374873;28;20486;-62
2023/06/18 02:15:38;;;;;;;6.63;5.93;;;16.80;99.10;;;;;;6370434;28;20466;-62
2023/06/18 02:18:41;;;;;;;7.00;6.30;;;16.80;99.20;;;;;;6375143;28;20551;-62
2023/06/18 02:21:45;;;;;;;7.70;6.93;;;16.80;99.20;;;;;;6374556;28;20480;-62
2023/06/18 02:24:48;;;;;;;6.80;6.20;;;16.70;99.30;;;;;;6374753;28;20949;-62
2023/06/18 02:27:53;;;;;;;6.63;6.00;;;16.60;99.30;;;;;;6374461;28;20466;-62
2023/06/18 02:30:58;;;;;;;6.73;6.23;;;16.60;99.40;;;;;;6366924;27;20465;-62
2023/06/18 02:34:01;;;;;;;7.07;6.47;;;16.50;99.40;;;;;;6374319;28;21033;-62
2023/06/18 02:37:06;;;;;;;7.23;6.57;;;16.50;99.60;;;;;;6374547;27;20471;-61
2023/06/18 02:40:13;;;;;;;6.73;6.20;;;16.50;99.60;;;;;;6376187;27;20462;-61
2023/06/18 02:43:16;;;;;;;6.50;5.90;;;16.40;99.90;;;;;;6371887;27;20454;-61
2023/06/18 02:46:21;;;;;;;7.10;6.40;;;16.40;99.80;;;;;;6377984;27;20528;-62
2023/06/18 02:49:24;;;;;;;6.77;6.17;;;16.30;99.70;;;;;;6377882;27;20454;-62
2023/06/18 02:52:27;;;;;;;6.60;6.00;;;16.30;99.90;;;;;;6379319;27;20434;-61
2023/06/18 02:55:32;;;;;;;7.73;7.13;;;16.20;99.90;;;;;;6396298;27;20445;-61
2023/06/18 02:58:35;;;;;;;7.40;6.80;;;16.20;99.90;;;;;;6405111;27;20464;-62
2023/06/18 03:01:40;;;;;;;7.03;6.33;;;16.20;99.90;;;;;;6405081;27;20525;-62
2023/06/18 03:04:43;;;;;;;7.67;6.50;;;16.20;99.90;;;;;;6382444;27;20469;-62
2023/06/18 03:07:46;;;;;;;7.13;6.43;;;16.20;99.90;;;;;;6379200;27;20470;-62
2023/06/18 03:10:50;;;;;;;6.63;6.13;;;16.10;99.90;;;;;;6379237;27;20484;-61
2023/06/18 03:13:53;;;;;;;7.17;6.60;;;16.10;99.90;;;;;;6379094;27;20575;-61
2023/06/18 03:16:57;;;;;;;7.63;7.00;;;16.10;99.90;;;;;;6378750;27;20952;-61
2023/06/18 03:20:06;;;;;;;8.60;6.90;;;16.00;99.90;;;;;;6378430;27;20770;-61
2023/06/18 03:23:09;;;;;;;7.43;6.20;;;16.00;99.90;;;;;;6378517;27;20969;-61
2023/06/18 03:26:13;;;;;;;7.53;6.83;;;16.00;99.90;;;;;;6378274;27;20492;-62
2023/06/18 03:29:16;;;;;;;8.10;7.30;;;16.00;99.90;;;;;;6378802;27;20474;-61
2023/06/18 03:32:21;;;;;;;7.63;6.90;;;16.00;99.90;;;;;;6378266;27;20946;-61
2023/06/18 03:35:24;;;;;;;6.97;6.30;;;16.00;99.90;;;;;;6378570;27;20957;-61
2023/06/18 03:38:28;;;;;;;6.90;6.20;;;16.00;99.90;;;;;;6377917;27;20466;-62
2023/06/18 03:41:31;;;;;;;6.57;5.90;;;16.00;99.90;;;;;;6378033;27;20468;-61
2023/06/18 03:44:34;;;;;;;6.83;6.23;;;16.10;99.90;;;;;;6378015;27;20482;-62
2023/06/18 03:47:39;;;;;;;7.37;6.67;;;16.10;99.90;;;;;;6377400;27;20543;-62
2023/06/18 03:50:43;;;;;;;7.50;6.90;;;16.20;99.90;;;;;;6376799;27;20482;-61
2023/06/18 03:53:47;;;;;;;6.90;6.20;;;16.20;99.90;;;;;;6379615;27;20496;-61
2023/06/18 03:56:50;;;;;;;7.30;6.67;;;16.20;99.90;;;;;;6403280;27;20476;-61
2023/06/18 03:59:53;;;;;;;7.57;6.87;;;16.30;99.90;;;;;;6402976;27;20466;-61
2023/06/18 04:02:58;;;;;;;7.67;7.07;;;16.30;99.90;;;;;;6402912;27;20462;-61
2023/06/18 04:06:01;;;;;;;7.50;6.90;;;16.30;99.90;;;;;;6403080;27;20512;-61
2023/06/18 04:09:04;;;;;;;7.60;6.90;;;16.40;99.80;;;;;;6403457;27;20813;-62
2023/06/18 04:12:09;;;;;;;8.47;6.90;;;16.40;99.80;;;;;;6402638;27;20554;-62
2023/06/18 04:15:12;;;;;;;7.67;6.97;;;16.40;99.90;;;;;;6402283;27;20467;-62
2023/06/18 04:18:17;;;;;;;8.07;7.37;;;16.50;99.80;;;;;;6402230;27;20480;-61
2023/06/18 04:21:20;;;;;;;8.70;7.87;;;16.60;99.80;;;;;;6403172;27;20898;-61
2023/06/18 04:24:23;;;;;;;7.23;6.57;;;16.70;99.60;;;;;;6397823;27;20775;-61
2023/06/18 04:27:27;;;;;;;6.80;6.20;;;16.70;99.40;;;;;;6402618;27;20800;-61
2023/06/18 04:30:30;;;;;;;9.40;6.67;;;16.80;99.40;;;;;;6402117;27;20606;-61
2023/06/18 04:33:34;;;;;;;8.23;7.53;;;16.90;98.90;;;;;;6402567;27;20956;-61
2023/06/18 04:36:37;;;;;;;8.33;7.43;;;17.10;98.60;;;;;;6402627;27;20479;-61
2023/06/18 04:39:40;;;;;;;7.73;6.97;;;17.20;98.60;;;;;;6402247;27;20572;-62
2023/06/18 04:42:44;;;;;;;7.37;6.67;;;17.20;98.50;;;;;;6402772;27;20466;-61
2023/06/18 04:45:48;;;;;;;7.70;7.00;;;17.40;98.30;;;;;;6402377;27;20492;-61
2023/06/18 04:48:52;;;;;;;7.37;6.77;;;17.50;98.10;;;;;;6402687;27;20933;-61
2023/06/18 04:51:55;;;;;;;8.20;7.40;;;17.60;98.00;;;;;;6402449;27;20485;-61
2023/06/18 04:54:58;;;;;;;8.13;7.10;;;17.70;97.90;;;;;;6402388;27;20782;-61
2023/06/18 04:58:02;;;;;;;8.07;6.93;;;17.90;97.70;;;;;;6402091;27;20231;-62
2023/06/18 05:01:05;;;;;;;9.00;8.20;;;18.10;97.40;;;;;;6401918;27;20254;-62
2023/06/18 05:04:11;;;;;;;7.90;7.10;;;18.30;96.50;;;;;;6401643;27;20290;-62
2023/06/18 05:07:15;;;;;;;8.43;7.53;;;18.40;96.10;;;;;;6402089;27;20330;-61
2023/06/18 05:10:22;;;;;;;8.00;7.17;;;18.70;95.50;;;;;;6402017;27;20227;-61
2023/06/18 05:13:26;;;;;;;9.17;8.27;;;18.80;94.90;;;;;;6402352;27;20188;-62
2023/06/18 05:16:29;;;;;;;11.70;7.10;;;18.90;94.50;;;;;;6401456;27;20526;-61
2023/06/18 05:19:34;;;;;;;8.73;7.90;;;19.10;94.10;;;;;;6401808;27;20232;-62
2023/06/18 05:22:39;;;;;;;8.53;7.70;;;19.30;93.50;;;;;;6401716;27;20231;-62
2023/06/18 05:25:42;;;;;;;8.43;7.47;;;19.50;93.10;;;;;;6401315;27;20228;-62
2023/06/18 05:28:45;;;;;;;8.43;7.63;;;19.60;92.80;;;;;;6401775;27;20219;-62
2023/06/18 05:31:48;;;;;;;8.33;7.53;;;19.80;92.80;;;;;;6401370;27;20712;-62
2023/06/18 05:34:55;;;;;;;8.43;7.60;;;20.00;92.50;;;;;;6401330;27;20220;-62
2023/06/18 05:37:58;;;;;;;9.53;8.40;;;20.10;91.90;;;;;;6401233;27;20220;-62
2023/06/18 05:41:01;;;;;;;9.13;8.33;;;20.30;91.80;;;;;;6400711;27;20600;-63
2023/06/18 05:44:05;;;;;;;8.10;7.30;;;20.50;91.40;;;;;;6401328;27;20688;-62
2023/06/18 05:47:08;;;;;;;7.87;7.17;;;20.60;91.00;;;;;;6400309;27;20228;-62
2023/06/18 05:50:16;;;;;;;8.27;7.57;;;20.80;91.10;;;;;;6400747;27;20232;-62
2023/06/18 05:53:19;;;;;;;9.10;8.20;;;21.00;90.80;;;;;;6401367;27;20224;-62
2023/06/18 05:56:23;;;;;;;6.93;6.40;;;21.20;90.40;;;;;;6401013;27;20269;-62
2023/06/18 05:59:26;;;;;;;8.33;7.63;;;21.30;90.50;;;;;;6401095;27;20236;-62
2023/06/18 06:02:29;;;;;;;9.00;8.13;;;21.50;89.80;;;;;;6400669;27;20678;-62
2023/06/18 06:05:34;;;;;;;8.30;7.60;;;21.60;89.00;;;;;;6400985;27;20307;-62
2023/06/18 06:08:40;;;;;;;8.80;8.00;;;21.80;88.50;;;;;;6400871;27;20238;-62
2023/06/18 06:11:43;;;;;;;7.57;6.97;;;22.00;87.30;;;;;;6400291;27;20228;-62
2023/06/18 06:14:46;;;;;;;8.50;7.80;;;22.30;87.10;;;;;;6401055;27;20254;-62
2023/06/18 06:17:49;;;;;;;8.50;7.70;;;22.60;86.20;;;;;;6400869;27;20223;-63
2023/06/18 06:20:54;;;;;;;8.77;8.07;;;23.10;85.20;;;;;;6400572;27;20562;-62
2023/06/18 06:23:58;;;;;;;9.03;8.13;;;23.70;82.60;;;;;;6400546;27;20220;-62
2023/06/18 06:27:01;;;;;;;10.77;8.60;;;24.10;80.70;;;;;;6400381;27;20237;-62
2023/06/18 06:30:07;;;;;;;8.30;7.60;;;24.70;79.10;;;;;;6400298;27;20239;-62
2023/06/18 06:33:11;;;;;;;9.13;8.33;;;25.20;75.90;;;;;;6400215;27;20299;-62
2023/06/18 06:36:15;;;;;;;9.60;8.80;;;25.50;73.70;;;;;;6400211;27;20230;-62
2023/06/18 06:39:19;;;;;;;7.60;7.00;;;25.80;72.20;;;;;;6400364;27;20234;-62
2023/06/18 06:42:22;;;;;;;10.20;8.77;;;26.30;71.20;;;;;;6400261;27;20314;-62
2023/06/18 06:45:27;;;;;;;9.80;8.90;;;26.80;67.80;;;;;;6400394;27;20678;-62
2023/06/18 06:48:30;;;;;;;8.40;7.70;;;27.00;65.60;;;;;;6400446;27;20251;-62
2023/06/18 06:51:35;;;;;;;8.57;7.77;;;27.50;63.70;;;;;;6400340;27;20276;-62
2023/06/18 06:54:40;;;;;;;8.17;7.47;;;27.90;61.30;;;;;;6400648;27;20659;-63
2023/06/18 06:57:43;;;;;;;8.70;8.00;;;28.50;59.60;;;;;;6401539;27;20219;-62
2023/06/18 07:00:47;;;;;;;8.00;7.30;;;29.10;57.40;;;;;;6400211;27;20239;-62
2023/06/18 07:03:50;;;;;;;9.30;8.60;;;29.50;56.00;;;;;;6400458;27;20646;-62
2023/06/18 07:06:55;;;;;;;8.77;8.07;;;30.10;54.50;;;;;;6400463;27;20228;-62
2023/06/18 07:10:00;;;;;;;8.52;7.82;;;30.70;52.60;;;;;;6400251;27;20742;-62
2023/06/18 07:13:04;;;;;;;8.63;7.82;;;31.30;51.60;;;;;;6386222;27;20212;-62
2023/06/18 07:16:07;;;;;;;8.52;7.88;;;31.90;49.40;;;;;;6367983;28;20220;-64
2023/06/18 07:19:10;;;;;;;8.18;7.57;;;32.50;47.20;;;;;;6364566;28;20311;-63
2023/06/18 07:22:15;;;;;;;7.93;7.22;;;33.00;44.70;;;;;;6367914;28;20388;-63
2023/06/18 07:25:18;;;;;;;8.52;7.82;;;33.40;45.20;;;;;;6368576;27;20197;-63
2023/06/18 07:28:21;;;;;;;7.90;7.30;;;33.80;42.70;;;;;;6371738;27;20268;-63
2023/06/18 07:31:24;;;;;;;8.23;7.63;;;34.20;41.30;;;;;;6371863;27;20226;-63
2023/06/18 07:34:27;;;;;;;8.48;7.82;;;34.80;40.10;;;;;;6363152;27;20214;-64
2023/06/18 07:37:32;;;;;;;9.10;8.20;;;35.20;39.40;;;;;;6374551;27;20184;-63
2023/06/18 07:40:37;;;;;;;8.10;7.50;;;35.10;38.60;;;;;;6373693;27;20224;-63
2023/06/18 07:43:40;;;;;;;7.35;6.82;;;34.90;39.50;;;;;;6374035;27;20224;-63
2023/06/18 07:46:44;;;;;;;8.57;7.75;;;34.50;38.10;;;;;;6373863;27;20228;-62
2023/06/18 07:49:47;;;;;;;9.07;7.93;;;34.00;39.30;;;;;;6375284;27;20782;-62
2023/06/18 07:52:52;;;;;;;9.00;8.35;;;33.50;41.60;;;;;;6367947;27;20220;-63
2023/06/18 07:55:55;;;;;;;8.55;7.95;;;32.90;40.90;;;;;;6367129;27;20218;-63
2023/06/18 07:58:58;;;;;;;8.63;7.80;;;32.50;39.90;;;;;;6366378;27;20216;-62
2023/06/18 08:02:02;;;;;;;9.27;8.48;;;32.20;40.30;;;;;;6368229;27;20610;-63
2023/06/18 08:05:07;;;;;;;8.80;8.00;;;31.70;40.90;;;;;;6372939;27;20286;-63
2023/06/18 08:08:11;;;;;;;8.43;7.82;;;31.30;41.80;;;;;;6365932;27;20252;-62
2023/06/18 08:11:15;;;;;;;9.98;9.10;;;31.10;41.20;;;;;;6371295;27;20228;-62
2023/06/18 08:14:18;;;;;;;8.57;7.88;;;30.90;41.30;;;;;;6370303;27;20702;-63
2023/06/18 08:17:21;;;;;;;8.48;7.78;;;30.50;40.90;;;;;;6368694;27;20217;-63
2023/06/18 08:20:25;;;;;;;8.90;8.20;;;30.50;41.10;;;;;;6374021;27;20596;-63
2023/06/18 08:23:29;;;;;;;10.25;9.35;;;30.30;42.20;;;;;;6377316;27;20232;-63
2023/06/18 08:26:32;;;;;;;9.52;8.63;;;30.00;42.20;;;;;;6376402;27;20549;-63
2023/06/18 08:29:39;;;;;;;11.00;9.20;;;29.80;42.70;;;;;;6369953;27;20220;-63
2023/06/18 08:32:42;;;;;;;8.90;8.20;;;29.60;42.90;;;;;;6374532;27;20230;-64
2023/06/18 08:35:45;;;;;;;9.32;8.48;;;29.50;43.50;;;;;;6375803;27;20228;-63
2023/06/18 08:38:50;;;;;;;9.03;8.27;;;29.60;43.60;;;;;;6376749;27;20303;-63
2023/06/18 08:41:54;;;;;;;9.50;8.70;;;29.70;42.80;;;;;;6376713;27;20228;-62
2023/06/18 08:44:57;;;;;;;9.50;8.60;;;29.50;42.10;;;;;;6377108;27;20432;-63
2023/06/18 08:48:05;;;;;;;8.73;8.03;;;29.60;42.70;;;;;;6376684;27;20339;-63
2023/06/18 08:51:29;;;;;;;8.60;7.97;;;29.60;42.70;;;;;;6376606;27;20236;-65
2023/06/18 08:54:35;;;;;;;10.17;9.17;;;29.40;43.40;;;;;;6376704;27;20238;-62
2023/06/18 08:57:44;;;;;;;8.37;7.70;;;29.50;44.20;;;;;;6376546;27;20228;-63
2023/06/18 09:00:51;;;;;;;10.10;9.30;;;29.60;44.50;;;;;;6376726;27;20247;-64
2023/06/18 09:03:55;;;;;;;9.00;8.25;;;29.70;45.00;;;;;;6376116;27;20228;-63
2023/06/18 09:06:59;;;;;;;9.27;8.57;;;29.60;45.10;;;;;;6376185;27;20224;-64
2023/06/18 09:10:06;;;;;;;9.80;9.00;;;29.70;45.40;;;;;;6375893;27;20690;-64
2023/06/18 09:13:09;;;;;;;9.13;8.43;;;29.80;45.20;;;;;;6375974;27;20348;-64
2023/06/18 09:16:13;;;;;;;9.07;8.37;;;29.60;45.00;;;;;;6376024;27;20226;-63
2023/06/18 09:19:17;;;;;;;9.33;8.53;;;29.70;44.10;;;;;;6375748;27;20261;-63
2023/06/18 09:22:21;;;;;;;9.60;8.80;;;29.90;43.90;;;;;;6375702;27;20221;-63
2023/06/18 09:25:26;;;;;;;10.70;9.80;;;29.90;44.30;;;;;;6375529;27;20621;-63
2023/06/18 09:28:34;;;;;;;9.73;9.02;;;29.70;43.50;;;;;;6375791;27;20217;-64
2023/06/18 09:31:41;;;;;;;9.65;8.75;;;29.70;42.90;;;;;;6375543;27;20224;-63
2023/06/18 09:34:45;;;;;;;8.90;8.15;;;30.00;43.80;;;;;;6375593;27;20250;-63
2023/06/18 09:37:48;;;;;;;9.90;9.02;;;30.00;43.60;;;;;;6375749;27;20323;-63
2023/06/18 09:40:53;;;;;;;8.88;7.95;;;30.10;42.90;;;;;;6371191;27;20338;-63
2023/06/18 09:43:56;;;;;;;8.90;8.20;;;30.30;42.10;;;;;;6375469;27;20224;-63
2023/06/18 09:47:00;;;;;;;9.20;8.50;;;30.40;44.20;;;;;;6374250;27;20236;-63
2023/06/18 09:50:03;;;;;;;9.73;8.48;;;30.30;43.60;;;;;;6375193;27;20228;-63
2023/06/18 09:53:17;;;;;;;8.90;8.05;;;30.30;43.50;;;;;;6375271;27;20226;-63
2023/06/18 09:56:22;;;;;;;9.00;8.15;;;30.30;41.80;;;;;;6357951;27;20228;-63
2023/06/18 09:59:27;;;;;;;9.70;8.02;;;30.50;41.90;;;;;;6375350;27;20246;-63
2023/06/18 10:02:30;;;;;;;8.73;7.93;;;30.50;40.90;;;;;;6375405;27;20310;-64
2023/06/18 10:05:34;;;;;;;9.45;8.75;;;30.40;38.80;;;;;;6375095;27;20678;-63
2023/06/18 10:08:40;;;;;;;11.18;9.45;;;30.30;41.60;;;;;;6375491;27;20231;-64
2023/06/18 10:11:46;;;;;;;8.60;7.90;;;30.20;43.00;;;;;;6375175;28;20224;-63
2023/06/18 10:14:55;;;;;;;9.63;8.60;;;30.10;43.00;;;;;;6375022;28;20303;-63
2023/06/18 10:18:00;;;;;;;10.15;7.72;;;30.10;42.20;;;;;;6375118;28;20235;-63
2023/06/18 10:21:04;;;;;;;10.18;9.27;;;30.30;42.10;;;;;;6374571;28;20239;-63
2023/06/18 10:24:13;;;;;;;8.38;7.78;;;30.40;41.10;;;;;;6375132;28;20701;-64
2023/06/18 10:27:18;;;;;;;8.43;7.72;;;30.40;40.80;;;;;;6374784;28;20307;-63
2023/06/18 10:30:22;;;;;;;9.98;8.93;;;30.10;39.20;;;;;;6374946;28;20236;-63
2023/06/18 10:33:26;;;;;;;9.90;9.07;;;30.20;39.60;;;;;;6374269;28;20224;-63
2023/06/18 10:36:31;;;;;;;8.63;7.93;;;30.30;38.80;;;;;;6374838;28;20683;-63
2023/06/18 10:39:34;;;;;;;8.80;8.00;;;30.40;38.00;;;;;;6374370;28;20228;-63
2023/06/18 10:42:40;;;;;;;8.40;7.78;;;30.50;38.30;;;;;;6374905;28;20223;-63
2023/06/18 10:46:10;;;;;;;8.23;7.45;;;30.70;38.20;;;;;;6369902;28;20244;-63
2023/06/18 10:49:19;;;;;;;9.02;8.13;;;30.80;38.70;;;;;;6374887;28;20232;-63
2023/06/18 10:52:25;;;;;;;8.60;7.78;;;30.70;38.70;;;;;;6374351;28;20242;-63
2023/06/18 10:55:32;;;;;;;9.48;8.20;;;30.70;38.10;;;;;;6374623;28;20204;-63
2023/06/18 10:58:40;;;;;;;9.45;8.30;;;30.70;38.00;;;;;;6375464;27;20648;-63
2023/06/18 11:01:44;;;;;;;9.00;8.20;;;30.70;38.70;;;;;;6379499;27;20228;-63
2023/06/18 11:04:48;;;;;;;9.15;8.40;;;30.50;38.60;;;;;;6379372;27;20224;-63
2023/06/18 11:08:01;;;;;;;8.50;7.68;;;30.10;38.50;;;;;;6379062;27;20529;-63
2023/06/18 11:11:06;;;;;;;9.60;8.63;;;30.10;38.70;;;;;;6371182;27;20232;-63
2023/06/18 11:14:21;;;;;;;8.93;8.13;;;30.20;39.60;;;;;;6378967;27;20236;-63
2023/06/18 11:17:24;;;;;;;10.95;10.05;;;30.30;38.90;;;;;;6379330;27;20562;-64
2023/06/18 11:20:30;;;;;;;8.82;8.13;;;30.40;38.70;;;;;;6378821;27;20236;-64
2023/06/18 11:23:34;;;;;;;9.10;8.38;;;30.60;38.60;;;;;;6378942;27;20244;-63
2023/06/18 11:26:38;;;;;;;9.15;8.45;;;30.40;37.50;;;;;;6378630;27;20588;-63
2023/06/18 11:29:45;;;;;;;10.23;9.32;;;30.50;38.50;;;;;;6378853;27;20228;-63
2023/06/18 11:32:49;;;;;;;9.05;8.35;;;30.40;39.10;;;;;;6379115;27;20246;-64
2023/06/18 11:35:53;;;;;;;9.48;8.75;;;30.30;38.70;;;;;;6378835;27;20240;-64
2023/06/18 11:38:58;;;;;;;10.98;9.98;;;30.30;37.20;;;;;;6378768;27;20235;-64
2023/06/18 11:42:12;;;;;;;9.02;8.23;;;30.40;37.10;;;;;;6378081;27;20232;-64
2023/06/18 11:45:20;;;;;;;9.30;8.50;;;30.50;38.20;;;;;;6378376;27;20604;-63
2023/06/18 11:48:24;;;;;;;8.68;7.68;;;30.40;38.90;;;;;;6378383;27;20236;-63
2023/06/18 11:51:29;;;;;;;8.43;7.72;;;30.10;39.20;;;;;;6378136;27;20238;-63
2023/06/18 11:54:35;;;;;;;9.00;8.20;;;30.10;39.00;;;;;;6378124;27;20243;-63
2023/06/18 11:57:39;;;;;;;8.52;7.78;;;30.10;37.70;;;;;;6378205;27;20242;-63
2023/06/18 12:00:44;;;;;;;9.40;8.70;;;30.10;37.80;;;;;;6378165;27;20232;-63
2023/06/18 12:03:47;;;;;;;9.07;8.27;;;30.20;37.20;;;;;;6378173;27;20223;-62
2023/06/18 12:06:50;;;;;;;10.00;7.88;;;30.00;36.30;;;;;;6377895;27;20229;-63
2023/06/18 12:09:57;;;;;;;9.23;8.48;;;29.80;36.00;;;;;;6376769;27;20228;-63
2023/06/18 12:13:07;;;;;;;9.27;8.57;;;29.70;36.20;;;;;;6377534;27;20667;-62
2023/06/18 12:16:23;;;;;;;8.93;8.23;;;29.70;36.00;;;;;;6377823;27;20307;-62
2023/06/18 12:19:28;;;;;;;8.63;7.93;;;29.90;35.50;;;;;;6377467;27;20235;-64
2023/06/18 12:22:32;;;;;;;8.65;7.85;;;30.10;36.40;;;;;;6377697;27;20204;-65
2023/06/18 12:25:35;;;;;;;8.73;7.93;;;30.20;35.70;;;;;;6377106;27;20649;-63
2023/06/18 12:28:41;;;;;;;9.00;8.30;;;30.10;35.60;;;;;;6377462;27;20300;-63
2023/06/18 12:32:01;;;;;;;8.02;7.43;;;30.00;35.20;;;;;;6377395;27;20313;-63
2023/06/18 12:35:13;;;;;;;9.07;8.38;;;30.10;34.30;;;;;;6377085;27;20329;-63
2023/06/18 12:38:16;;;;;;;8.68;8.07;;;30.30;35.20;;;;;;6376991;27;20231;-63
2023/06/18 12:41:23;;;;;;;8.25;7.40;;;30.30;35.00;;;;;;6376957;27;20304;-63
2023/06/18 12:44:28;;;;;;;8.38;7.78;;;30.20;35.10;;;;;;6373502;27;20250;-63
2023/06/18 12:47:32;;;;;;;8.25;7.45;;;30.10;35.30;;;;;;6372759;27;20289;-64
2023/06/18 12:50:46;;;;;;;8.77;7.88;;;30.10;34.90;;;;;;6371954;27;20251;-64
2023/06/18 12:53:52;;;;;;;7.78;7.07;;;30.30;35.20;;;;;;6376951;27;20313;-63
2023/06/18 12:56:58;;;;;;;8.73;7.90;;;30.30;34.70;;;;;;6376895;27;20269;-64
2023/06/18 13:00:01;;;;;;;9.15;8.35;;;30.40;35.10;;;;;;6376836;27;20593;-64
2023/06/18 13:03:06;;;;;;;8.63;7.93;;;30.20;33.50;;;;;;6376199;27;20232;-63
2023/06/18 13:06:12;;;;;;;8.15;7.45;;;30.20;34.00;;;;;;6376519;27;20550;-64
2023/06/18 13:09:16;;;;;;;8.35;7.75;;;30.20;33.50;;;;;;6376508;27;20228;-63
2023/06/18 13:12:19;;;;;;;8.93;8.23;;;30.30;34.10;;;;;;6376234;27;20228;-64
2023/06/18 13:15:22;;;;;;;8.65;7.95;;;30.40;33.30;;;;;;6376486;27;20266;-64
2023/06/18 13:18:28;;;;;;;8.48;7.78;;;30.30;33.60;;;;;;6376121;27;20281;-63
2023/06/18 13:21:33;;;;;;;7.65;7.03;;;30.20;34.00;;;;;;6376154;27;20232;-63
2023/06/18 13:24:36;;;;;;;8.52;7.25;;;30.30;33.80;;;;;;6375630;27;20540;-63
2023/06/18 13:27:39;;;;;;;13.05;8.93;;;30.20;33.30;;;;;;6375797;27;20754;-64
2023/06/18 13:30:43;;;;;;;8.20;7.60;;;30.20;34.60;;;;;;6375750;27;20224;-63
2023/06/18 13:33:47;;;;;;;8.73;7.93;;;30.20;35.30;;;;;;6376046;27;20231;-63
2023/06/18 13:36:50;;;;;;;9.63;8.93;;;30.10;36.40;;;;;;6375357;27;20570;-63
2023/06/18 13:39:54;;;;;;;9.32;8.52;;;30.10;36.80;;;;;;6376161;27;20228;-63
2023/06/18 13:42:58;;;;;;;9.32;8.63;;;30.10;37.20;;;;;;6375282;27;20701;-63
2023/06/18 13:46:02;;;;;;;9.98;9.18;;;30.00;36.70;;;;;;6375387;27;20703;-63
2023/06/18 13:49:06;;;;;;;8.90;8.20;;;29.90;37.90;;;;;;6375368;27;20228;-63
2023/06/18 13:52:09;;;;;;;9.20;8.40;;;29.80;39.10;;;;;;6375154;27;20698;-63
2023/06/18 13:55:13;;;;;;;9.10;8.30;;;29.80;38.90;;;;;;6374893;27;20228;-63
2023/06/18 13:58:16;;;;;;;8.50;7.80;;;29.90;38.80;;;;;;6374763;27;20226;-63
2023/06/18 14:01:20;;;;;;;10.18;8.05;;;29.90;39.20;;;;;;6374707;27;20548;-63
2023/06/18 14:04:24;;;;;;;9.32;8.55;;;29.90;39.30;;;;;;6375187;27;20678;-64
2023/06/18 14:07:30;;;;;;;9.13;8.32;;;29.70;39.10;;;;;;6374861;27;20203;-63
2023/06/18 14:10:33;;;;;;;9.85;9.05;;;29.70;39.00;;;;;;6374948;27;20228;-64
2023/06/18 14:13:36;;;;;;;9.13;8.43;;;29.50;39.20;;;;;;6375160;27;20301;-64
2023/06/18 14:16:40;;;;;;;10.07;9.17;;;29.60;40.40;;;;;;6375266;28;20230;-65
2023/06/18 14:19:45;;;;;;;8.77;8.05;;;29.40;40.10;;;;;;6375266;28;20230;-64
2023/06/18 14:22:48;;;;;;;9.13;8.43;;;29.50;40.50;;;;;;6375349;28;20220;-64
2023/06/18 14:25:52;;;;;;;8.80;8.00;;;29.60;40.10;;;;;;6375163;28;20219;-64
2023/06/18 14:28:55;;;;;;;8.88;8.18;;;29.80;39.70;;;;;;6374688;28;20529;-64
2023/06/18 14:31:58;;;;;;;8.77;8.07;;;29.70;39.20;;;;;;6374738;28;20228;-64
2023/06/18 14:35:02;;;;;;;9.20;8.50;;;29.60;40.40;;;;;;6378494;27;20237;-64
2023/06/18 14:38:07;;;;;;;9.70;8.52;;;29.60;40.50;;;;;;6380181;27;20219;-63
2023/06/18 14:41:10;;;;;;;9.60;8.73;;;29.60;40.30;;;;;;6379731;27;20670;-63
2023/06/18 14:44:13;;;;;;;9.85;9.05;;;29.80;39.60;;;;;;6379875;27;20219;-63
2023/06/18 14:47:16;;;;;;;8.30;7.60;;;29.70;40.30;;;;;;6379989;27;20220;-63
2023/06/18 14:50:21;;;;;;;9.38;8.60;;;29.70;40.40;;;;;;6379618;27;20699;-63
2023/06/18 14:53:24;;;;;;;9.87;9.17;;;29.60;40.30;;;;;;6379968;27;20347;-63
2023/06/18 14:56:28;;;;;;;9.82;9.02;;;29.60;40.20;;;;;;6370033;27;20656;-64
2023/06/18 14:59:31;;;;;;;9.63;8.85;;;29.60;40.70;;;;;;6379576;27;20531;-64
2023/06/18 15:02:34;;;;;;;10.32;9.48;;;29.70;40.90;;;;;;6378920;27;20236;-64
2023/06/18 15:05:39;;;;;;;9.30;8.60;;;29.70;41.20;;;;;;6379333;27;20302;-64
2023/06/18 15:08:42;;;;;;;9.77;8.77;;;29.90;41.30;;;;;;6379645;27;20227;-64
2023/06/18 15:11:45;;;;;;;9.02;8.23;;;30.00;40.30;;;;;;6378833;27;20236;-64
2023/06/18 15:14:50;;;;;;;9.23;8.32;;;30.00;39.90;;;;;;6379228;27;20248;-64
2023/06/18 15:17:53;;;;;;;8.98;8.27;;;30.10;40.20;;;;;;6380322;27;20224;-64
2023/06/18 15:20:58;;;;;;;9.05;8.35;;;30.20;40.10;;;;;;6380413;27;20220;-63
2023/06/18 15:24:01;;;;;;;9.70;9.00;;;30.10;39.90;;;;;;6378827;27;20224;-63
2023/06/18 15:27:05;;;;;;;8.77;7.97;;;30.00;40.90;;;;;;6378962;27;20237;-63
2023/06/18 15:30:09;;;;;;;10.15;9.35;;;30.10;40.70;;;;;;6378568;27;20227;-63
2023/06/18 15:33:12;;;;;;;9.73;8.75;;;30.00;40.60;;;;;;6378578;27;20652;-63
2023/06/18 15:36:17;;;;;;;9.10;8.32;;;29.90;39.50;;;;;;6378634;27;20659;-63
2023/06/18 15:39:20;;;;;;;9.32;8.48;;;29.90;39.10;;;;;;6378768;27;20684;-63
2023/06/18 15:42:24;;;;;;;9.52;8.82;;;29.90;39.30;;;;;;6378262;27;20230;-63
2023/06/18 15:45:27;;;;;;;11.23;8.02;;;29.80;38.90;;;;;;6377225;27;20236;-63
2023/06/18 15:48:30;;;;;;;8.60;7.72;;;29.80;38.90;;;;;;6378186;27;20220;-63
2023/06/18 15:51:35;;;;;;;9.65;8.93;;;29.90;39.00;;;;;;6378181;27;20224;-63
2023/06/18 15:54:38;;;;;;;10.23;9.32;;;29.80;39.10;;;;;;6378237;27;20227;-64
2023/06/18 15:57:41;;;;;;;10.25;9.35;;;29.90;39.60;;;;;;6377975;27;20597;-63
2023/06/18 16:00:44;;;;;;;8.70;8.00;;;29.90;40.00;;;;;;6373134;27;20231;-63